createdAt,value
2022-12-18T00:01:59.222Z,28.10
2022-12-18T00:04:28.757Z,35.67
2022-12-18T00:06:57.082Z,33.70
2022-12-18T00:09:25.337Z,35.67
2022-12-18T00:14:44.108Z,40.17
2022-12-18T00:17:12.283Z,36.80
2022-12-18T00:19:40.470Z,46.50
2022-12-18T00:22:08.631Z,40.93
2022-12-18T00:24:36.898Z,39.40
2022-12-18T00:27:05.043Z,37.10
2022-12-18T00:29:34.722Z,37.80
2022-12-18T00:32:02.984Z,35.90
2022-12-18T00:34:31.684Z,31.80
2022-12-18T00:36:59.817Z,35.80
2022-12-18T00:39:27.956Z,43.37
2022-12-18T00:42:13.620Z,30.33
2022-12-18T00:44:43.424Z,36.17
2022-12-18T00:47:11.557Z,34.97
2022-12-18T00:49:39.691Z,29.43
2022-12-18T00:52:07.877Z,23.03
2022-12-18T00:54:36.035Z,29.13
2022-12-18T00:57:04.234Z,23.17
2022-12-18T00:59:32.416Z,25.03
2022-12-18T01:02:01.969Z,26.87
2022-12-18T01:04:34.140Z,23.23
2022-12-18T01:07:02.392Z,25.03
2022-12-18T01:09:30.546Z,21.70
2022-12-18T01:11:58.717Z,25.57
2022-12-18T01:14:27.811Z,23.83
2022-12-18T01:16:55.993Z,24.83
2022-12-18T01:19:25.777Z,21.23
2022-12-18T01:21:53.977Z,22.50
2022-12-18T01:24:22.143Z,22.57
2022-12-18T01:26:50.834Z,21.67
2022-12-18T01:29:18.993Z,28.97
2022-12-18T01:31:47.255Z,22.93
2022-12-18T01:34:15.554Z,24.50
2022-12-18T01:36:45.088Z,27.70
2022-12-18T01:39:15.417Z,23.00
2022-12-18T01:42:02.107Z,23.83
2022-12-18T01:45:07.585Z,25.77
2022-12-18T01:47:38.987Z,28.67
2022-12-18T01:50:12.569Z,30.97
2022-12-18T01:52:44.816Z,29.87
2022-12-18T01:55:15.951Z,23.77
2022-12-18T01:57:44.484Z,28.60
2022-12-18T02:00:15.751Z,29.93
2022-12-18T02:02:46.777Z,31.37
2022-12-18T02:05:18.395Z,23.00
2022-12-18T02:08:11.449Z,22.40
2022-12-18T02:10:48.716Z,23.30
2022-12-18T02:13:26.118Z,25.57
2022-12-18T02:16:02.500Z,26.60
2022-12-18T02:18:34.763Z,22.53
2022-12-18T02:21:12.152Z,25.60
2022-12-18T02:23:53.997Z,30.43
2022-12-18T02:26:29.789Z,23.47
2022-12-18T02:29:02.744Z,27.93
2022-12-18T02:31:38.991Z,26.60
2022-12-18T02:34:11.072Z,40.00
2022-12-18T02:36:43.723Z,33.57
2022-12-18T02:39:15.799Z,36.33
2022-12-18T02:41:56.917Z,31.30
2022-12-18T02:44:26.432Z,32.63
2022-12-18T02:46:56.349Z,47.80
2022-12-18T02:49:36.283Z,29.17
2022-12-18T02:52:11.506Z,44.67
2022-12-18T02:54:54.038Z,33.17
2022-12-18T02:57:34.934Z,51.63
2022-12-18T03:00:08.624Z,36.87
2022-12-18T03:02:46.790Z,34.70
2022-12-18T03:05:19.293Z,24.70
2022-12-18T03:07:53.639Z,34.13
2022-12-18T03:10:27.577Z,32.50
2022-12-18T03:13:04.946Z,31.47
2022-12-18T03:15:39.560Z,31.67
2022-12-18T03:18:15.589Z,24.10
2022-12-18T03:20:46.433Z,34.03
2022-12-18T03:23:25.952Z,32.60
2022-12-18T03:26:11.513Z,30.90
2022-12-18T03:28:47.884Z,31.87
2022-12-18T03:31:16.637Z,29.03
2022-12-18T03:33:52.818Z,34.90
2022-12-18T03:36:22.112Z,31.80
2022-12-18T03:38:50.427Z,24.37
2022-12-18T03:41:28.462Z,23.40
2022-12-18T03:44:25.904Z,28.40
2022-12-18T03:47:01.094Z,32.13
2022-12-18T03:49:36.908Z,30.03
2022-12-18T03:52:11.725Z,28.57
2022-12-18T03:54:43.506Z,30.53
2022-12-18T03:57:20.186Z,27.47
2022-12-18T03:59:56.205Z,27.90
2022-12-18T04:02:27.553Z,28.90
2022-12-18T04:05:01.653Z,28.63
2022-12-18T04:07:30.366Z,26.83
2022-12-18T04:10:02.867Z,31.17
2022-12-18T04:12:32.963Z,28.40
2022-12-18T04:15:03.284Z,25.40
2022-12-18T04:17:31.447Z,35.27
2022-12-18T04:20:00.395Z,30.33
2022-12-18T04:22:29.133Z,31.47
2022-12-18T04:25:01.259Z,31.73
2022-12-18T04:27:40.631Z,28.90
2022-12-18T04:30:12.735Z,28.20
2022-12-18T04:32:40.945Z,30.90
2022-12-18T04:35:11.556Z,26.47
2022-12-18T04:37:42.464Z,24.07
2022-12-18T04:40:11.796Z,30.37
2022-12-18T04:42:44.025Z,31.87
2022-12-18T04:45:13.646Z,28.67
2022-12-18T04:47:42.241Z,25.53
2022-12-18T04:50:10.674Z,33.13
2022-12-18T04:52:38.807Z,29.30
2022-12-18T04:55:07.794Z,34.37
2022-12-18T04:57:35.992Z,36.83
2022-12-18T05:00:07.007Z,27.00
2022-12-18T05:02:36.592Z,24.00
2022-12-18T05:05:05.332Z,27.97
2022-12-18T05:07:33.513Z,29.00
2022-12-18T05:10:01.726Z,28.37
2022-12-18T05:12:29.862Z,23.80
2022-12-18T05:14:58.000Z,23.73
2022-12-18T05:17:26.156Z,24.53
2022-12-18T05:19:55.633Z,25.13
2022-12-18T05:22:24.177Z,27.23
2022-12-18T05:24:52.323Z,24.23
2022-12-18T05:27:21.636Z,26.33
2022-12-18T05:29:49.790Z,24.50
2022-12-18T05:32:17.917Z,25.87
2022-12-18T05:34:46.066Z,28.77
2022-12-18T05:37:15.541Z,24.47
2022-12-18T05:39:44.696Z,19.93
2022-12-18T05:42:12.877Z,24.33
2022-12-18T05:44:41.519Z,25.43
2022-12-18T05:47:09.684Z,27.03
2022-12-18T05:49:37.815Z,32.33
2022-12-18T05:52:06.293Z,21.53
2022-12-18T05:54:35.763Z,22.20
2022-12-18T05:57:03.940Z,26.60
2022-12-18T05:59:32.233Z,29.23
2022-12-18T06:02:00.631Z,37.23
2022-12-18T06:04:29.527Z,26.40
2022-12-18T06:06:57.825Z,30.47
2022-12-18T06:09:26.388Z,26.80
2022-12-18T06:11:55.857Z,30.97
2022-12-18T06:14:24.341Z,30.20
2022-12-18T06:16:52.951Z,24.03
2022-12-18T06:19:21.236Z,27.03
2022-12-18T06:21:50.222Z,27.60
2022-12-18T06:24:18.964Z,28.53
2022-12-18T06:26:47.088Z,28.93
2022-12-18T06:29:16.766Z,29.53
2022-12-18T06:31:44.947Z,30.53
2022-12-18T06:34:13.291Z,25.20
2022-12-18T06:36:41.436Z,23.90
2022-12-18T06:39:09.929Z,30.93
2022-12-18T06:41:38.207Z,29.53
2022-12-18T06:44:07.785Z,29.43
2022-12-18T06:46:37.264Z,30.43
2022-12-18T06:49:05.745Z,22.97
2022-12-18T06:51:33.864Z,28.23
2022-12-18T06:54:02.006Z,33.17
2022-12-18T06:56:30.185Z,26.80
2022-12-18T06:58:58.431Z,30.83
2022-12-18T07:01:26.680Z,24.43
2022-12-18T07:03:57.056Z,25.23
2022-12-18T07:06:27.080Z,26.03
2022-12-18T07:08:56.595Z,18.37
2022-12-18T07:11:24.825Z,24.40
2022-12-18T07:13:54.377Z,25.57
2022-12-18T07:16:25.572Z,24.63
2022-12-18T07:18:54.263Z,21.00
2022-12-18T07:21:25.578Z,24.73
2022-12-18T07:23:54.032Z,23.23
2022-12-18T07:26:24.109Z,22.43
2022-12-18T07:28:52.377Z,25.73
2022-12-18T07:31:22.558Z,18.83
2022-12-18T07:33:51.812Z,26.03
2022-12-18T07:36:20.773Z,26.10
2022-12-18T07:38:51.144Z,26.57
2022-12-18T07:41:19.659Z,24.97
2022-12-18T07:43:48.330Z,26.60
2022-12-18T07:46:18.024Z,26.20
2022-12-18T07:48:50.027Z,26.93
2022-12-18T07:51:19.835Z,16.83
2022-12-18T07:53:49.537Z,27.20
2022-12-18T07:56:31.458Z,31.53
2022-12-18T07:59:00.371Z,35.50
2022-12-18T08:01:29.275Z,29.30
2022-12-18T08:03:57.579Z,25.43
2022-12-18T08:06:25.726Z,28.23
2022-12-18T08:08:54.747Z,19.70
2022-12-18T08:11:25.950Z,25.47
2022-12-18T08:13:54.791Z,23.60
2022-12-18T08:16:23.974Z,27.03
2022-12-18T08:18:53.989Z,30.73
2022-12-18T08:21:24.803Z,39.60
2022-12-18T08:23:54.364Z,33.63
2022-12-18T08:26:25.569Z,34.47
2022-12-18T08:28:55.993Z,33.23
2022-12-18T08:31:24.831Z,37.63
2022-12-18T08:33:54.720Z,32.30
2022-12-18T08:36:24.257Z,28.60
2022-12-18T08:38:53.232Z,32.97
2022-12-18T08:41:21.719Z,30.00
2022-12-18T08:44:09.218Z,31.90
2022-12-18T08:46:40.023Z,38.87
2022-12-18T08:49:09.231Z,33.27
2022-12-18T08:51:37.629Z,43.40
2022-12-18T08:54:06.813Z,35.00
2022-12-18T08:56:35.349Z,29.13
2022-12-18T08:59:05.321Z,29.13
2022-12-18T09:01:33.711Z,33.50
2022-12-18T09:04:02.977Z,33.53
2022-12-18T09:06:31.158Z,30.10
2022-12-18T09:09:00.019Z,34.07
2022-12-18T09:11:30.323Z,36.13
2022-12-18T09:13:59.734Z,28.87
2022-12-18T09:16:32.571Z,26.67
2022-12-18T09:19:01.688Z,31.13
2022-12-18T09:21:31.667Z,27.77
2022-12-18T09:24:02.056Z,28.63
2022-12-18T09:26:30.698Z,25.80
2022-12-18T09:28:59.047Z,28.40
2022-12-18T09:31:27.290Z,27.70
2022-12-18T09:33:58.103Z,24.60
2022-12-18T09:36:26.480Z,23.53
2022-12-18T09:38:55.705Z,21.50
2022-12-18T09:41:41.155Z,26.57
2022-12-18T09:44:17.861Z,28.87
2022-12-18T09:46:49.655Z,21.00
2022-12-18T09:49:23.961Z,27.20
2022-12-18T09:51:56.672Z,26.70
2022-12-18T09:54:28.068Z,28.97
2022-12-18T09:56:56.975Z,32.63
2022-12-18T09:59:28.545Z,27.63
2022-12-18T10:01:56.853Z,28.57
2022-12-18T10:04:33.307Z,27.13
2022-12-18T10:07:09.838Z,25.23
2022-12-18T10:09:44.587Z,25.17
2022-12-18T10:12:23.436Z,29.97
2022-12-18T10:14:59.017Z,21.60
2022-12-18T10:17:34.328Z,33.83
2022-12-18T10:20:12.610Z,22.43
2022-12-18T10:22:51.082Z,25.10
2022-12-18T10:25:25.465Z,22.00
2022-12-18T10:27:55.735Z,23.57
2022-12-18T10:30:26.296Z,17.57
2022-12-18T10:32:55.139Z,23.00
2022-12-18T10:35:26.731Z,23.20
2022-12-18T10:38:03.263Z,21.70
2022-12-18T10:40:31.932Z,22.30
2022-12-18T10:43:06.893Z,21.67
2022-12-18T10:45:35.038Z,20.00
2022-12-18T10:48:03.208Z,21.73
2022-12-18T10:51:09.320Z,23.87
2022-12-18T10:53:26.186Z,20.00
2022-12-18T10:55:56.777Z,19.80
2022-12-18T10:58:28.413Z,17.20
2022-12-18T11:01:09.996Z,20.30
2022-12-18T11:03:41.139Z,29.40
2022-12-18T11:06:13.596Z,19.40
2022-12-18T11:08:43.687Z,29.93
2022-12-18T11:11:22.318Z,22.63
2022-12-18T11:14:02.637Z,23.93
2022-12-18T11:16:34.866Z,22.70
2022-12-18T11:19:23.628Z,25.90
2022-12-18T11:21:53.285Z,27.63
2022-12-18T11:24:29.483Z,21.63
2022-12-18T11:26:59.989Z,26.67
2022-12-18T11:29:35.853Z,29.87
2022-12-18T11:32:27.102Z,26.03
2022-12-18T11:35:02.600Z,22.13
2022-12-18T11:37:33.232Z,17.00
2022-12-18T11:40:05.031Z,31.80
2022-12-18T11:42:40.406Z,22.07
2022-12-18T11:45:28.599Z,28.97
2022-12-18T11:48:03.258Z,25.97
2022-12-18T11:50:35.962Z,26.47
2022-12-18T11:53:06.475Z,23.23
2022-12-18T11:55:43.647Z,17.53
2022-12-18T11:58:22.602Z,21.73
2022-12-18T12:01:05.709Z,24.30
2022-12-18T12:03:54.084Z,21.67
2022-12-18T12:06:33.444Z,25.40
2022-12-18T12:09:12.029Z,25.13
2022-12-18T12:11:51.823Z,25.03
2022-12-18T12:14:34.586Z,20.20
2022-12-18T12:17:11.690Z,20.40
2022-12-18T12:19:48.030Z,23.10
2022-12-18T12:22:26.941Z,22.07
2022-12-18T12:25:16.147Z,26.00
2022-12-18T12:28:00.033Z,24.87
2022-12-18T12:30:37.749Z,23.50
2022-12-18T12:33:22.857Z,19.83
2022-12-18T12:35:59.745Z,24.37
2022-12-18T12:38:32.520Z,24.97
2022-12-18T12:41:05.970Z,21.20
2022-12-18T12:43:42.319Z,25.00
2022-12-18T12:46:17.560Z,25.80
2022-12-18T12:48:50.650Z,30.23
2022-12-18T12:51:23.428Z,28.30
2022-12-18T12:53:52.876Z,25.37
2022-12-18T12:56:24.397Z,26.87
2022-12-18T12:59:03.391Z,20.57
2022-12-18T13:01:38.599Z,23.37
2022-12-18T13:04:18.286Z,25.27
2022-12-18T13:06:55.678Z,22.03
2022-12-18T13:09:24.415Z,26.80
2022-12-18T13:12:11.547Z,24.47
2022-12-18T13:14:42.697Z,20.03
2022-12-18T13:17:32.921Z,30.10
2022-12-18T13:20:07.777Z,26.00
2022-12-18T13:22:39.074Z,24.17
2022-12-18T13:25:30.713Z,20.40
2022-12-18T13:28:07.490Z,23.83
2022-12-18T13:30:51.708Z,20.93
2022-12-18T13:36:37.783Z,24.30
2022-12-18T13:39:36.325Z,24.50
2022-12-18T13:42:58.541Z,22.67
2022-12-18T13:46:03.024Z,31.40
2022-12-18T13:48:35.002Z,23.40
2022-12-18T13:51:06.448Z,22.63
2022-12-18T13:53:41.555Z,27.60
2022-12-18T13:56:10.527Z,24.20
2022-12-18T13:58:39.077Z,21.70
2022-12-18T14:01:23.939Z,20.90
2022-12-18T14:04:10.806Z,22.73
2022-12-18T14:06:39.391Z,25.83
2022-12-18T14:09:14.759Z,28.13
2022-12-18T14:11:52.569Z,25.80
2022-12-18T14:14:21.736Z,23.70
2022-12-18T14:16:54.478Z,23.27
2022-12-18T14:19:23.812Z,21.40
2022-12-18T14:21:52.609Z,24.93
2022-12-18T14:24:23.093Z,24.83
2022-12-18T14:26:52.325Z,35.87
2022-12-18T14:29:24.683Z,24.90
2022-12-18T14:32:17.822Z,29.63
2022-12-18T14:34:48.300Z,25.40
2022-12-18T14:37:20.091Z,23.30
2022-12-18T14:39:59.324Z,25.83
2022-12-18T14:42:29.241Z,30.43
2022-12-18T14:45:41.340Z,31.47
2022-12-18T14:48:23.283Z,29.10
2022-12-18T14:51:01.122Z,25.73
2022-12-18T14:53:37.508Z,29.00
2022-12-18T14:56:15.908Z,33.00
2022-12-18T14:58:48.299Z,27.40
2022-12-18T15:01:26.132Z,27.67
2022-12-18T15:03:57.633Z,32.43
2022-12-18T15:06:31.152Z,23.93
2022-12-18T15:09:00.289Z,29.77
2022-12-18T15:11:36.952Z,26.10
2022-12-18T15:14:24.109Z,31.80
2022-12-18T15:16:55.029Z,26.10
2022-12-18T15:19:30.528Z,28.17
2022-12-18T15:22:06.363Z,29.07
2022-12-18T15:24:35.324Z,27.10
2022-12-18T15:27:03.542Z,27.17
2022-12-18T15:29:31.713Z,30.70
2022-12-18T15:32:04.866Z,28.03
2022-12-18T15:34:35.891Z,27.90
2022-12-18T15:37:04.358Z,31.50
2022-12-18T15:39:32.893Z,22.43
2022-12-18T15:42:20.571Z,34.23
2022-12-18T15:44:49.500Z,36.00
2022-12-18T15:47:17.670Z,38.73
2022-12-18T15:49:47.137Z,32.40
2022-12-18T15:52:26.776Z,30.20
2022-12-18T15:55:12.664Z,31.27
2022-12-18T15:57:40.776Z,27.10
2022-12-18T16:00:14.498Z,26.90
2022-12-18T16:02:43.124Z,25.80
2022-12-18T16:05:17.967Z,26.37
2022-12-18T16:07:46.630Z,28.60
2022-12-18T16:10:15.266Z,26.23
2022-12-18T16:12:44.427Z,30.43
2022-12-18T16:15:22.486Z,24.70
2022-12-18T16:17:53.200Z,25.97
2022-12-18T16:20:24.368Z,26.23
2022-12-18T16:22:54.013Z,32.37
2022-12-18T16:25:27.658Z,29.93
2022-12-18T16:27:57.231Z,29.27
2022-12-18T16:30:29.429Z,27.13
2022-12-18T16:33:02.029Z,24.73
2022-12-18T16:35:31.743Z,27.20
2022-12-18T16:38:00.048Z,30.87
2022-12-18T16:40:28.238Z,30.10
2022-12-18T16:42:56.398Z,30.30
2022-12-18T16:45:24.557Z,31.70
2022-12-18T16:47:53.019Z,38.27
2022-12-18T16:50:21.193Z,41.53
2022-12-18T16:52:50.835Z,27.30
2022-12-18T16:55:21.902Z,36.30
2022-12-18T16:57:50.465Z,36.17
2022-12-18T17:00:18.967Z,43.90
2022-12-18T17:02:47.391Z,43.83
2022-12-18T17:05:15.811Z,42.30
2022-12-18T17:07:44.043Z,37.50
2022-12-18T17:10:13.515Z,31.10
2022-12-18T17:12:42.781Z,39.03
2022-12-18T17:15:12.530Z,38.67
2022-12-18T17:17:40.670Z,39.70
2022-12-18T17:20:09.992Z,37.87
2022-12-18T17:22:38.141Z,40.10
2022-12-18T17:25:06.649Z,39.03
2022-12-18T17:27:36.112Z,35.93
2022-12-18T17:30:04.826Z,38.17
2022-12-18T17:32:32.972Z,33.60
2022-12-18T17:35:06.699Z,28.23
2022-12-18T17:37:37.158Z,37.40
2022-12-18T17:40:06.387Z,34.10
2022-12-18T17:42:35.863Z,32.47
2022-12-18T17:45:04.316Z,32.23
2022-12-18T17:47:32.473Z,26.87
2022-12-18T17:50:00.654Z,39.27
2022-12-18T17:52:28.773Z,35.30
2022-12-18T17:54:56.981Z,32.40
2022-12-18T17:57:25.181Z,35.00
2022-12-18T17:59:54.652Z,31.90
2022-12-18T18:02:23.882Z,34.90
2022-12-18T18:04:52.940Z,33.00
2022-12-18T18:07:21.136Z,37.57
2022-12-18T18:09:49.334Z,37.70
2022-12-18T18:12:34.911Z,36.07
2022-12-18T18:15:06.105Z,35.23
2022-12-18T18:17:34.292Z,39.70
2022-12-18T18:20:02.499Z,34.80
2022-12-18T18:22:30.643Z,33.20
2022-12-18T18:24:59.267Z,29.50
2022-12-18T18:27:27.474Z,34.07
2022-12-18T18:29:56.556Z,36.87
2022-12-18T18:32:26.091Z,35.93
2022-12-18T18:34:54.373Z,39.50
2022-12-18T18:37:23.017Z,39.50
2022-12-18T18:39:51.623Z,35.93
2022-12-18T18:42:19.800Z,39.50
2022-12-18T18:44:49.159Z,34.33
2022-12-18T18:47:17.634Z,35.43
2022-12-18T18:49:47.507Z,38.33
2022-12-18T18:52:15.804Z,32.37
2022-12-18T18:55:03.531Z,42.30
2022-12-18T18:57:32.085Z,39.00
2022-12-18T19:00:00.267Z,38.40
2022-12-18T19:02:28.554Z,31.87
2022-12-18T19:04:58.340Z,34.20
2022-12-18T19:07:30.967Z,40.00
2022-12-18T19:10:03.902Z,42.00
2022-12-18T19:12:52.692Z,43.47
2022-12-18T19:15:21.922Z,36.17
2022-12-18T19:17:50.337Z,41.37
2022-12-18T19:20:20.907Z,41.13
2022-12-18T19:22:55.073Z,35.00
2022-12-18T19:25:38.045Z,44.27
2022-12-18T19:28:17.377Z,36.00
2022-12-18T19:30:50.885Z,41.23
2022-12-18T19:33:42.213Z,42.17
2022-12-18T19:36:15.537Z,40.53
2022-12-18T19:38:44.826Z,46.00
2022-12-18T19:41:14.982Z,38.07
2022-12-18T19:43:43.632Z,34.40
2022-12-18T19:46:15.324Z,41.67
2022-12-18T19:48:45.096Z,45.30
2022-12-18T19:51:16.270Z,46.70
2022-12-18T19:53:45.102Z,44.13
2022-12-18T19:56:15.478Z,42.23
2022-12-18T19:58:44.814Z,52.80
2022-12-18T20:01:16.498Z,47.30
2022-12-18T20:03:46.984Z,42.37
2022-12-18T20:06:27.125Z,57.70
2022-12-18T20:09:00.823Z,42.17
2022-12-18T20:11:29.867Z,45.57
2022-12-18T20:13:58.059Z,54.97
2022-12-18T20:16:26.333Z,47.40
2022-12-18T20:18:57.208Z,42.40
2022-12-18T20:21:27.891Z,48.43
2022-12-18T20:23:56.643Z,44.27
2022-12-18T20:26:25.087Z,53.97
2022-12-18T20:28:54.777Z,48.67
2022-12-18T20:31:23.776Z,51.53
2022-12-18T20:33:53.441Z,50.40
2022-12-18T20:36:25.936Z,54.07
2022-12-18T20:38:59.388Z,57.20
2022-12-18T20:41:38.197Z,51.37
2022-12-18T20:44:21.381Z,53.20
2022-12-18T20:46:50.935Z,54.17
2022-12-18T20:49:19.067Z,51.97
2022-12-18T20:51:51.229Z,62.80
2022-12-18T20:54:20.980Z,50.10
2022-12-18T20:56:49.171Z,52.20
2022-12-18T20:59:18.189Z,50.60
2022-12-18T21:01:48.742Z,49.90
2022-12-18T21:04:18.659Z,54.40
2022-12-18T21:06:52.961Z,51.90
2022-12-18T21:09:25.370Z,43.40
2022-12-18T21:12:14.131Z,53.13
2022-12-18T21:14:43.231Z,53.40
2022-12-18T21:17:12.656Z,44.43
2022-12-18T21:19:41.114Z,58.93
2022-12-18T21:22:10.687Z,49.07
2022-12-18T21:24:40.339Z,53.00
2022-12-18T21:27:08.495Z,46.47
2022-12-18T21:29:38.984Z,47.10
2022-12-18T21:32:09.165Z,47.43
2022-12-18T21:34:37.621Z,50.97
2022-12-18T21:37:05.888Z,46.50
2022-12-18T21:39:34.100Z,49.10
2022-12-18T21:42:21.471Z,52.50
2022-12-18T21:44:50.064Z,45.97
2022-12-18T21:47:22.872Z,47.87
2022-12-18T21:49:52.688Z,46.93
2022-12-18T21:52:31.319Z,47.40
2022-12-18T21:55:08.587Z,42.17
2022-12-18T21:57:39.550Z,44.70
2022-12-18T22:00:17.435Z,43.90
2022-12-18T22:03:01.150Z,45.27
2022-12-18T22:05:36.647Z,51.07
2022-12-18T22:08:05.115Z,50.90
2022-12-18T22:10:33.555Z,46.83
2022-12-18T22:13:03.296Z,44.23
2022-12-18T22:15:31.665Z,48.00
2022-12-18T22:18:00.532Z,49.00
2022-12-18T22:20:30.007Z,50.87
2022-12-18T22:22:58.592Z,41.23
2022-12-18T22:25:27.125Z,46.63
2022-12-18T22:28:12.768Z,41.43
2022-12-18T22:30:42.318Z,44.43
2022-12-18T22:33:10.592Z,49.87
2022-12-18T22:35:38.762Z,44.50
2022-12-18T22:38:07.322Z,41.60
2022-12-18T22:40:35.602Z,50.07
2022-12-18T22:43:04.117Z,41.63
2022-12-18T22:45:32.314Z,40.40
2022-12-18T22:48:03.581Z,48.07
2022-12-18T22:50:33.725Z,41.90
2022-12-18T22:53:02.978Z,41.80
2022-12-18T22:55:31.235Z,47.30
2022-12-18T22:57:59.389Z,47.97
2022-12-18T23:00:27.555Z,37.53
2022-12-18T23:03:00.244Z,41.27
2022-12-18T23:05:31.914Z,49.03
2022-12-18T23:08:00.096Z,48.90
2022-12-18T23:10:29.183Z,42.90
2022-12-18T23:12:57.448Z,43.83
2022-12-18T23:15:28.286Z,43.37
2022-12-18T23:17:58.796Z,46.70
2022-12-18T23:20:27.846Z,49.17
2022-12-18T23:22:57.349Z,50.70
2022-12-18T23:25:25.495Z,43.87
2022-12-18T23:27:53.858Z,48.73
2022-12-18T23:30:22.031Z,51.50
2022-12-18T23:32:50.297Z,40.53
2022-12-18T23:35:18.883Z,44.87
2022-12-18T23:38:03.957Z,49.00
2022-12-18T23:40:33.508Z,43.17
2022-12-18T23:43:01.742Z,38.40
2022-12-18T23:45:30.223Z,52.30
2022-12-18T23:47:58.401Z,41.70
2022-12-18T23:50:29.527Z,46.67
2022-12-18T23:53:04.788Z,44.43
2022-12-18T23:55:40.391Z,38.87
2022-12-18T23:58:15.313Z,45.53
